createdAt,value
2023-05-09T00:00:49.142Z,36.70
2023-05-09T00:03:17.163Z,34.00
2023-05-09T00:05:46.200Z,34.80
2023-05-09T00:08:14.130Z,30.90
2023-05-09T00:10:42.017Z,24.40
2023-05-09T00:13:09.841Z,28.30
2023-05-09T00:15:37.819Z,27.40
2023-05-09T00:18:06.016Z,27.90
2023-05-09T00:20:34.197Z,26.60
2023-05-09T00:23:02.050Z,32.10
2023-05-09T00:25:30.015Z,28.20
2023-05-09T00:27:57.953Z,29.30
2023-05-09T00:30:26.047Z,25.00
2023-05-09T00:32:54.030Z,27.70
2023-05-09T00:35:21.977Z,24.50
2023-05-09T00:37:49.854Z,25.90
2023-05-09T00:40:17.644Z,29.00
2023-05-09T00:42:45.618Z,26.70
2023-05-09T00:45:13.647Z,26.60
2023-05-09T00:47:41.641Z,25.90
2023-05-09T00:50:10.521Z,25.80
2023-05-09T00:52:38.810Z,26.40
2023-05-09T00:55:08.374Z,24.00
2023-05-09T00:57:36.717Z,24.40
2023-05-09T01:00:05.548Z,28.70
2023-05-09T01:02:33.614Z,27.20
2023-05-09T01:05:01.972Z,24.60
2023-05-09T01:07:38.278Z,26.60
2023-05-09T01:10:16.906Z,27.60
2023-05-09T01:12:54.780Z,26.40
2023-05-09T01:15:47.157Z,26.30
2023-05-09T01:18:19.433Z,26.70
2023-05-09T01:20:58.678Z,21.40
2023-05-09T01:23:36.275Z,23.40
2023-05-09T01:26:49.952Z,21.40
2023-05-09T01:31:56.652Z,25.50
2023-05-09T01:34:27.208Z,23.60
2023-05-09T01:36:59.794Z,24.20
2023-05-09T01:39:28.821Z,21.40
2023-05-09T01:41:58.329Z,24.20
2023-05-09T01:44:26.869Z,22.20
2023-05-09T01:46:57.589Z,26.90
2023-05-09T01:49:26.368Z,28.90
2023-05-09T01:51:54.192Z,25.30
2023-05-09T01:54:22.732Z,26.60
2023-05-09T01:56:51.240Z,29.80
2023-05-09T01:59:19.396Z,25.80
2023-05-09T02:01:48.164Z,23.70
2023-05-09T02:04:16.516Z,24.40
2023-05-09T02:06:44.739Z,24.80
2023-05-09T02:09:13.125Z,25.60
2023-05-09T02:11:40.971Z,23.30
2023-05-09T02:14:08.972Z,24.30
2023-05-09T02:16:39.519Z,24.40
2023-05-09T02:19:07.365Z,26.20
2023-05-09T02:21:35.797Z,26.70
2023-05-09T02:24:03.925Z,25.20
2023-05-09T02:26:31.908Z,27.50
2023-05-09T02:29:01.186Z,23.50
2023-05-09T02:31:29.755Z,28.50
2023-05-09T02:33:57.795Z,27.10
2023-05-09T02:36:25.653Z,29.30
2023-05-09T02:38:53.727Z,27.90
2023-05-09T02:41:22.137Z,27.50
2023-05-09T02:43:49.932Z,29.40
2023-05-09T02:46:17.927Z,26.10
2023-05-09T02:48:45.910Z,28.40
2023-05-09T02:51:13.738Z,35.50
2023-05-09T02:53:41.591Z,25.90
2023-05-09T02:56:10.899Z,29.30
2023-05-09T02:58:38.672Z,24.10
2023-05-09T03:01:06.490Z,28.50
2023-05-09T03:03:34.728Z,25.20
2023-05-09T03:06:02.622Z,26.90
2023-05-09T03:08:31.156Z,27.40
2023-05-09T03:10:58.984Z,29.30
2023-05-09T03:13:26.905Z,30.90
2023-05-09T03:15:54.854Z,27.90
2023-05-09T03:18:22.839Z,28.70
2023-05-09T03:20:51.356Z,28.00
2023-05-09T03:23:19.114Z,29.40
2023-05-09T03:25:46.885Z,32.20
2023-05-09T03:28:14.754Z,35.10
2023-05-09T03:30:42.620Z,26.70
2023-05-09T03:33:10.683Z,33.00
2023-05-09T03:35:38.496Z,30.50
2023-05-09T03:38:06.265Z,31.50
2023-05-09T03:40:34.118Z,32.40
2023-05-09T03:43:01.876Z,28.10
2023-05-09T03:45:29.608Z,33.30
2023-05-09T03:47:57.438Z,33.10
2023-05-09T03:50:25.550Z,32.40
2023-05-09T03:52:55.193Z,32.40
2023-05-09T03:55:23.836Z,32.60
2023-05-09T03:57:52.027Z,35.20
2023-05-09T04:00:21.813Z,25.20
2023-05-09T04:02:50.391Z,35.80
2023-05-09T04:05:18.728Z,28.50
2023-05-09T04:07:46.612Z,29.70
2023-05-09T04:10:14.395Z,35.30
2023-05-09T04:12:42.230Z,33.60
2023-05-09T04:15:11.143Z,36.00
2023-05-09T04:17:39.248Z,34.20
2023-05-09T04:20:08.336Z,30.20
2023-05-09T04:22:36.341Z,25.00
2023-05-09T04:25:04.794Z,26.40
2023-05-09T04:27:32.620Z,24.00
2023-05-09T04:30:00.485Z,24.30
2023-05-09T04:32:28.313Z,22.50
2023-05-09T04:34:56.165Z,25.70
2023-05-09T04:37:23.999Z,20.60
2023-05-09T04:39:51.961Z,19.70
2023-05-09T04:42:19.832Z,21.90
2023-05-09T04:44:49.405Z,21.30
2023-05-09T04:47:17.312Z,24.40
2023-05-09T04:49:45.176Z,20.00
2023-05-09T04:52:12.939Z,20.10
2023-05-09T04:54:41.092Z,19.50
2023-05-09T04:57:17.273Z,20.90
2023-05-09T04:59:46.135Z,18.30
2023-05-09T05:02:13.947Z,19.00
2023-05-09T05:04:41.948Z,19.50
2023-05-09T05:07:09.838Z,20.50
2023-05-09T05:09:37.658Z,22.90
2023-05-09T05:12:08.372Z,18.50
2023-05-09T05:14:37.326Z,17.40
2023-05-09T05:17:05.248Z,17.80
2023-05-09T05:19:33.162Z,18.40
2023-05-09T05:22:00.874Z,15.10
2023-05-09T05:24:28.588Z,14.00
2023-05-09T05:26:56.365Z,18.30
2023-05-09T05:29:24.402Z,14.40
2023-05-09T05:31:52.423Z,14.70
2023-05-09T05:34:20.520Z,15.50
2023-05-09T05:36:48.245Z,12.90
2023-05-09T05:39:16.198Z,15.60
2023-05-09T05:41:44.001Z,13.40
2023-05-09T05:44:11.832Z,13.00
2023-05-09T05:46:39.606Z,14.70
2023-05-09T05:49:07.473Z,12.20
2023-05-09T05:51:35.385Z,13.50
2023-05-09T05:54:03.437Z,12.50
2023-05-09T05:56:31.212Z,12.20
2023-05-09T05:58:59.071Z,12.70
2023-05-09T06:01:26.936Z,10.50
2023-05-09T06:03:56.076Z,10.90
2023-05-09T06:06:24.378Z,12.30
2023-05-09T06:08:52.303Z,12.00
2023-05-09T06:11:20.112Z,11.30
2023-05-09T06:13:48.161Z,9.90
2023-05-09T06:16:19.922Z,9.20
2023-05-09T06:18:48.710Z,11.10
2023-05-09T06:21:16.662Z,11.40
2023-05-09T06:24:01.414Z,10.00
2023-05-09T06:26:32.408Z,10.90
2023-05-09T06:29:00.259Z,14.10
2023-05-09T06:31:28.136Z,8.90
2023-05-09T06:33:55.946Z,8.80
2023-05-09T06:36:23.692Z,7.30
2023-05-09T06:38:51.524Z,27.20
2023-05-09T06:41:19.323Z,12.30
2023-05-09T06:43:47.855Z,10.30
2023-05-09T06:46:15.899Z,12.20
2023-05-09T06:48:43.795Z,8.80
2023-05-09T06:51:11.680Z,11.10
2023-05-09T06:53:39.429Z,16.30
2023-05-09T06:56:07.303Z,13.30
2023-05-09T06:58:35.265Z,10.00
2023-05-09T07:01:04.513Z,10.70
2023-05-09T07:03:32.384Z,10.70
2023-05-09T07:06:00.216Z,11.10
2023-05-09T07:08:28.027Z,18.00
2023-05-09T07:10:55.942Z,9.80
2023-05-09T07:13:23.869Z,9.70
2023-05-09T07:15:51.830Z,8.20
2023-05-09T07:18:19.752Z,11.30
2023-05-09T07:20:47.902Z,8.80
2023-05-09T07:23:15.938Z,8.10
2023-05-09T07:25:45.246Z,6.70
2023-05-09T07:28:15.067Z,11.40
2023-05-09T07:30:43.747Z,9.50
2023-05-09T07:33:11.624Z,10.00
2023-05-09T07:35:42.253Z,15.00
2023-05-09T07:38:11.085Z,9.30
2023-05-09T07:40:38.965Z,5.90
2023-05-09T07:43:06.843Z,6.60
2023-05-09T07:45:34.975Z,11.60
2023-05-09T07:48:02.881Z,6.00
2023-05-09T07:50:30.802Z,6.60
2023-05-09T07:52:59.719Z,9.00
2023-05-09T07:55:27.649Z,6.80
2023-05-09T07:57:55.565Z,6.30
2023-05-09T08:00:24.127Z,4.00
2023-05-09T08:02:52.570Z,6.00
2023-05-09T08:05:20.622Z,3.70
2023-05-09T08:07:48.506Z,6.10
2023-05-09T08:12:19.164Z,5.60
2023-05-09T08:14:46.332Z,7.30
2023-05-09T08:17:12.924Z,5.60
2023-05-09T08:19:39.380Z,4.20
2023-05-09T08:22:05.971Z,3.60
2023-05-09T08:24:32.577Z,3.30
2023-05-09T08:26:59.503Z,6.40
2023-05-09T08:29:26.340Z,4.30
2023-05-09T08:31:53.180Z,3.80
2023-05-09T08:34:20.700Z,3.90
2023-05-09T08:36:47.694Z,4.00
2023-05-09T08:39:14.322Z,5.10
2023-05-09T08:41:41.771Z,3.60
2023-05-09T08:44:08.730Z,5.20
2023-05-09T08:46:39.160Z,4.50
2023-05-09T08:49:08.463Z,5.50
2023-05-09T08:51:35.984Z,7.60
2023-05-09T08:54:03.093Z,6.80
2023-05-09T08:56:31.499Z,5.50
2023-05-09T08:58:58.366Z,5.60
2023-05-09T09:01:26.252Z,6.60
2023-05-09T09:03:53.805Z,4.30
2023-05-09T09:06:21.919Z,5.20
2023-05-09T09:08:48.696Z,4.30
2023-05-09T09:11:15.812Z,5.50
2023-05-09T09:13:43.598Z,4.40
2023-05-09T09:16:14.436Z,5.70
2023-05-09T09:18:41.068Z,4.00
2023-05-09T09:21:10.106Z,3.80
2023-05-09T09:23:40.143Z,8.20
2023-05-09T09:26:06.814Z,4.00
2023-05-09T09:28:34.309Z,4.80
2023-05-09T09:31:01.297Z,8.10
2023-05-09T09:33:29.185Z,4.60
2023-05-09T09:35:56.455Z,4.70
2023-05-09T09:38:24.216Z,7.60
2023-05-09T09:40:55.496Z,5.10
2023-05-09T09:43:30.204Z,9.10
2023-05-09T09:46:01.044Z,4.60
2023-05-09T09:48:35.195Z,4.80
2023-05-09T09:51:09.418Z,5.60
2023-05-09T09:53:43.109Z,6.30
2023-05-09T09:56:10.088Z,4.20
2023-05-09T09:58:36.612Z,3.30
2023-05-09T10:01:08.649Z,4.90
2023-05-09T10:03:44.636Z,3.70
2023-05-09T10:06:13.958Z,6.70
2023-05-09T10:08:42.391Z,4.10
2023-05-09T10:11:09.850Z,6.70
2023-05-09T10:13:38.230Z,6.70
2023-05-09T10:16:08.374Z,6.10
2023-05-09T10:18:35.833Z,4.40
2023-05-09T10:21:04.590Z,6.20
2023-05-09T10:23:32.717Z,4.30
2023-05-09T10:26:22.226Z,5.20
2023-05-09T10:28:49.442Z,3.60
2023-05-09T10:31:23.117Z,3.60
2023-05-09T10:33:50.883Z,4.00
2023-05-09T10:36:20.220Z,2.90
2023-05-09T10:38:48.453Z,4.10
2023-05-09T10:41:18.096Z,5.10
2023-05-09T10:43:45.592Z,6.80
2023-05-09T10:46:12.995Z,4.50
2023-05-09T10:48:40.569Z,6.50
2023-05-09T10:51:07.753Z,4.50
2023-05-09T10:53:55.612Z,4.00
2023-05-09T10:56:42.793Z,4.30
2023-05-09T10:59:33.694Z,4.20
2023-05-09T11:02:02.277Z,5.40
2023-05-09T11:04:31.647Z,3.90
2023-05-09T11:07:01.271Z,3.50
2023-05-09T11:09:37.449Z,4.10
2023-05-09T11:12:09.788Z,5.10
2023-05-09T11:14:55.443Z,6.00
2023-05-09T11:17:24.733Z,3.60
2023-05-09T11:19:51.204Z,3.80
2023-05-09T11:22:31.692Z,5.20
2023-05-09T11:25:07.577Z,3.50
2023-05-09T11:27:49.968Z,2.80
2023-05-09T11:30:19.300Z,5.70
2023-05-09T11:32:53.086Z,3.10
2023-05-09T11:36:29.714Z,4.20
2023-05-09T11:39:08.689Z,4.50
2023-05-09T11:41:56.683Z,4.20
2023-05-09T11:44:23.774Z,4.90
2023-05-09T11:46:50.287Z,5.20
2023-05-09T11:49:18.860Z,3.00
2023-05-09T11:51:45.322Z,5.10
2023-05-09T11:54:14.288Z,5.00
2023-05-09T11:56:41.495Z,4.50
2023-05-09T11:59:09.883Z,4.40
2023-05-09T12:01:36.847Z,5.30
2023-05-09T12:04:06.847Z,4.00
2023-05-09T12:06:33.730Z,4.00
2023-05-09T12:09:00.215Z,3.40
2023-05-09T12:11:31.605Z,4.10
2023-05-09T12:13:58.300Z,4.20
2023-05-09T12:16:24.793Z,4.00
2023-05-09T12:18:52.712Z,3.50
2023-05-09T12:21:22.134Z,5.10
2023-05-09T12:23:51.273Z,4.50
2023-05-09T12:26:22.031Z,5.70
2023-05-09T12:28:49.518Z,3.70
2023-05-09T12:31:16.734Z,4.30
2023-05-09T12:33:43.319Z,2.70
2023-05-09T12:36:12.401Z,3.50
2023-05-09T12:38:39.300Z,5.10
2023-05-09T12:41:15.439Z,3.10
2023-05-09T12:43:48.425Z,3.70
2023-05-09T12:46:22.177Z,4.90
2023-05-09T12:48:49.335Z,3.30
2023-05-09T12:51:21.220Z,4.40
2023-05-09T12:53:48.000Z,3.00
2023-05-09T12:56:23.649Z,4.80
2023-05-09T12:58:52.829Z,5.30
2023-05-09T13:01:21.756Z,9.00
2023-05-09T13:04:00.256Z,4.40
2023-05-09T13:06:27.127Z,7.30
2023-05-09T13:09:01.839Z,5.50
2023-05-09T13:11:29.018Z,4.60
2023-05-09T13:13:55.744Z,4.30
2023-05-09T13:16:22.622Z,6.50
2023-05-09T13:18:49.338Z,4.10
2023-05-09T13:21:15.878Z,4.00
2023-05-09T13:23:43.888Z,4.50
2023-05-09T13:26:10.519Z,2.60
2023-05-09T13:28:37.066Z,3.50
2023-05-09T13:31:03.686Z,5.60
2023-05-09T13:33:30.455Z,6.00
2023-05-09T13:35:57.052Z,4.50
2023-05-09T13:38:23.735Z,3.70
2023-05-09T13:40:50.948Z,5.80
2023-05-09T13:43:17.535Z,4.30
2023-05-09T13:45:44.040Z,6.30
2023-05-09T13:48:11.350Z,6.20
2023-05-09T13:50:37.947Z,5.90
2023-05-09T13:53:04.504Z,4.80
2023-05-09T13:55:31.069Z,5.00
2023-05-09T13:57:57.696Z,4.80
2023-05-09T14:00:25.903Z,4.60
2023-05-09T14:02:52.398Z,4.10
2023-05-09T14:05:19.280Z,5.00
2023-05-09T14:07:45.829Z,2.90
2023-05-09T14:10:12.591Z,7.30
2023-05-09T14:12:39.877Z,5.80
2023-05-09T14:15:07.829Z,2.80
2023-05-09T14:17:34.588Z,4.20
2023-05-09T14:20:01.224Z,4.50
2023-05-09T14:22:27.781Z,6.70
2023-05-09T14:24:56.673Z,7.60
2023-05-09T14:39:20.452Z,3.40
2023-05-09T14:41:49.485Z,5.30
2023-05-09T14:44:16.939Z,4.60
2023-05-09T14:46:44.202Z,6.70
2023-05-09T14:49:10.887Z,8.50
2023-05-09T14:51:37.409Z,10.10
2023-05-09T14:54:04.700Z,6.70
2023-05-09T14:56:31.400Z,4.50
2023-05-09T14:58:57.937Z,8.10
2023-05-09T15:01:24.743Z,3.60
2023-05-09T15:03:51.447Z,4.10
2023-05-09T15:06:18.217Z,2.70
2023-05-09T15:08:44.826Z,3.00
2023-05-09T15:11:11.477Z,6.20
2023-05-09T15:13:38.136Z,4.10
2023-05-09T15:16:04.936Z,7.00
2023-05-09T15:18:33.190Z,4.20
2023-05-09T15:21:00.510Z,4.60
2023-05-09T15:23:27.457Z,6.00
2023-05-09T15:25:54.049Z,6.50
2023-05-09T15:28:20.484Z,4.60
2023-05-09T15:30:47.996Z,5.20
2023-05-09T15:33:14.565Z,6.30
2023-05-09T15:35:41.801Z,4.40
2023-05-09T15:38:11.449Z,6.50
2023-05-09T15:40:40.463Z,3.80
2023-05-09T15:43:08.466Z,4.80
2023-05-09T15:45:37.303Z,4.00
2023-05-09T15:48:04.338Z,5.60
2023-05-09T15:50:31.019Z,5.10
2023-05-09T15:52:57.661Z,4.40
2023-05-09T15:55:24.554Z,3.90
2023-05-09T15:57:52.084Z,3.20
2023-05-09T16:00:19.006Z,3.60
2023-05-09T16:02:45.585Z,4.10
2023-05-09T16:05:12.443Z,7.50
2023-05-09T16:07:43.583Z,9.80
2023-05-09T16:10:10.240Z,8.50
2023-05-09T16:12:36.904Z,7.70
2023-05-09T16:15:04.711Z,10.80
2023-05-09T16:17:31.352Z,4.00
2023-05-09T16:19:58.352Z,3.80
2023-05-09T16:22:25.582Z,4.60
2023-05-09T16:24:52.398Z,8.80
2023-05-09T16:27:20.009Z,9.50
2023-05-09T16:29:46.533Z,6.10
2023-05-09T16:32:13.089Z,6.60
2023-05-09T16:34:39.810Z,5.60
2023-05-09T16:37:06.399Z,6.00
2023-05-09T16:39:32.939Z,6.20
2023-05-09T16:41:59.919Z,4.00
2023-05-09T16:44:26.846Z,5.10
2023-05-09T16:46:56.813Z,5.00
2023-05-09T16:49:23.508Z,7.50
2023-05-09T16:51:50.183Z,6.20
2023-05-09T16:54:16.816Z,5.20
2023-05-09T16:56:43.499Z,5.50
2023-05-09T16:59:10.152Z,3.60
2023-05-09T17:01:37.236Z,4.10
2023-05-09T17:04:06.129Z,4.00
2023-05-09T17:06:33.689Z,5.40
2023-05-09T17:09:03.590Z,4.50
2023-05-09T17:11:38.969Z,8.70
2023-05-09T17:14:06.070Z,10.80
2023-05-09T17:16:33.468Z,7.80
2023-05-09T17:19:01.739Z,7.00
2023-05-09T17:21:28.900Z,9.40
2023-05-09T17:23:56.457Z,7.60
2023-05-09T17:26:36.562Z,8.60
2023-05-09T17:29:06.440Z,6.70
2023-05-09T17:31:33.294Z,9.80
2023-05-09T17:34:19.820Z,13.00
2023-05-09T17:36:48.227Z,6.40
2023-05-09T17:39:17.792Z,7.40
2023-05-09T17:41:45.829Z,10.60
2023-05-09T17:44:18.410Z,7.00
2023-05-09T17:46:48.491Z,9.50
2023-05-09T17:49:17.305Z,10.00
2023-05-09T17:51:45.358Z,6.20
2023-05-09T17:54:13.447Z,5.90
2023-05-09T17:56:42.268Z,8.20
2023-05-09T17:59:10.628Z,6.50
2023-05-09T18:01:38.837Z,6.80
2023-05-09T18:04:07.966Z,7.10
2023-05-09T18:06:36.731Z,4.90
2023-05-09T18:09:06.133Z,7.00
2023-05-09T18:11:35.262Z,13.50
2023-05-09T18:14:03.729Z,5.90
2023-05-09T18:16:34.066Z,5.50
2023-05-09T18:19:02.208Z,7.30
2023-05-09T18:21:32.263Z,8.20
2023-05-09T18:24:01.418Z,7.40
2023-05-09T18:26:29.698Z,7.70
2023-05-09T18:28:58.275Z,8.50
2023-05-09T18:31:26.541Z,9.10
2023-05-09T18:33:54.711Z,7.60
2023-05-09T18:36:22.944Z,11.40
2023-05-09T18:38:52.902Z,10.50
2023-05-09T18:41:22.354Z,7.90
2023-05-09T18:43:50.561Z,9.20
2023-05-09T18:46:21.447Z,7.70
2023-05-09T18:48:53.901Z,9.60
2023-05-09T18:51:21.883Z,12.50
2023-05-09T18:53:49.722Z,10.50
2023-05-09T18:56:20.523Z,12.00
2023-05-09T18:58:52.463Z,9.60
2023-05-09T19:01:20.671Z,7.20
2023-05-09T19:03:54.092Z,6.60
2023-05-09T19:06:22.399Z,6.70
2023-05-09T19:08:50.310Z,7.80
2023-05-09T19:11:18.470Z,9.10
2023-05-09T19:13:49.321Z,6.20
2023-05-09T19:16:19.869Z,8.20
2023-05-09T19:18:48.949Z,7.70
2023-05-09T19:21:18.999Z,5.80
2023-05-09T19:23:59.487Z,8.50
2023-05-09T19:26:34.143Z,10.20
2023-05-09T19:29:11.160Z,8.90
2023-05-09T19:31:39.463Z,11.00
2023-05-09T19:34:07.706Z,7.70
2023-05-09T19:36:36.130Z,8.30
2023-05-09T19:39:11.465Z,7.10
2023-05-09T19:41:43.284Z,8.10
2023-05-09T19:44:12.266Z,8.00
2023-05-09T19:46:43.086Z,10.30
2023-05-09T19:49:11.860Z,9.50
2023-05-09T19:51:39.901Z,10.30
2023-05-09T19:54:09.634Z,11.10
2023-05-09T19:56:37.583Z,11.30
2023-05-09T19:59:23.912Z,10.60
2023-05-09T20:01:51.911Z,13.50
2023-05-09T20:04:21.962Z,15.80
2023-05-09T20:06:50.743Z,15.00
2023-05-09T20:09:21.101Z,10.60
2023-05-09T20:11:50.749Z,11.80
2023-05-09T20:14:19.235Z,11.60
2023-05-09T20:16:47.176Z,8.50
2023-05-09T20:19:15.735Z,9.40
2023-05-09T20:21:43.685Z,11.30
2023-05-09T20:24:11.952Z,8.70
2023-05-09T20:26:39.840Z,10.50
2023-05-09T20:29:08.072Z,7.40
2023-05-09T20:31:36.115Z,6.80
2023-05-09T20:34:04.164Z,11.00
2023-05-09T20:36:32.608Z,8.80
2023-05-09T20:39:00.510Z,7.90
2023-05-09T20:41:28.491Z,14.60
2023-05-09T20:44:03.405Z,8.20
2023-05-09T20:46:31.340Z,9.70
2023-05-09T20:48:59.146Z,16.70
2023-05-09T20:51:27.022Z,12.70
2023-05-09T20:53:54.790Z,8.50
2023-05-09T20:56:22.643Z,10.30
2023-05-09T20:58:50.672Z,9.40
2023-05-09T21:01:18.685Z,9.80
2023-05-09T21:03:46.737Z,7.30
2023-05-09T21:06:14.664Z,14.30
2023-05-09T21:08:43.371Z,11.60
2023-05-09T21:11:11.408Z,15.80
2023-05-09T21:13:39.289Z,14.50
2023-05-09T21:16:07.201Z,12.70
2023-05-09T21:18:35.179Z,9.90
2023-05-09T21:21:07.346Z,17.90
2023-05-09T21:23:35.458Z,13.70
2023-05-09T21:26:03.360Z,11.00
2023-05-09T21:28:31.510Z,12.30
2023-05-09T21:31:01.755Z,12.40
2023-05-09T21:33:30.032Z,13.10
2023-05-09T21:35:59.186Z,12.10
2023-05-09T21:38:27.015Z,8.10
2023-05-09T21:40:55.361Z,11.20
2023-05-09T21:43:23.356Z,11.30
2023-05-09T21:45:51.222Z,11.60
2023-05-09T21:48:19.083Z,8.60
2023-05-09T21:50:47.164Z,9.50
2023-05-09T21:53:14.993Z,9.10
2023-05-09T21:55:42.774Z,9.60
2023-05-09T21:58:10.606Z,17.60
2023-05-09T22:00:38.501Z,9.40
2023-05-09T22:03:06.513Z,14.80
2023-05-09T22:05:34.418Z,8.10
2023-05-09T22:08:02.253Z,11.00
2023-05-09T22:10:30.116Z,12.70
2023-05-09T22:12:58.351Z,7.20
2023-05-09T22:15:27.128Z,9.00
2023-05-09T22:17:54.939Z,7.70
2023-05-09T22:20:22.901Z,10.50
2023-05-09T22:22:50.848Z,9.30
2023-05-09T22:25:18.728Z,9.50
2023-05-09T22:27:46.584Z,10.00
2023-05-09T22:30:14.725Z,9.30
2023-05-09T22:32:43.279Z,8.40
2023-05-09T22:35:11.273Z,12.00
2023-05-09T22:37:39.032Z,9.20
2023-05-09T22:40:07.751Z,7.90
2023-05-09T22:42:35.902Z,8.20
2023-05-09T22:45:04.059Z,7.20
2023-05-09T22:47:31.992Z,9.70
2023-05-09T22:49:59.851Z,9.90
2023-05-09T22:52:27.725Z,7.90
2023-05-09T22:54:55.583Z,11.50
2023-05-09T22:57:23.925Z,7.60
2023-05-09T22:59:53.245Z,7.50
2023-05-09T23:02:21.740Z,10.70
2023-05-09T23:04:49.661Z,8.30
2023-05-09T23:07:17.613Z,10.30
2023-05-09T23:09:45.437Z,8.00
2023-05-09T23:12:13.293Z,7.40
2023-05-09T23:14:41.207Z,11.40
2023-05-09T23:17:09.032Z,10.70
2023-05-09T23:19:37.350Z,12.00
2023-05-09T23:22:05.280Z,10.30
2023-05-09T23:24:33.075Z,6.90
2023-05-09T23:27:02.541Z,11.20
2023-05-09T23:29:30.576Z,8.60
2023-05-09T23:31:58.532Z,11.70
2023-05-09T23:34:26.324Z,11.30
2023-05-09T23:36:54.151Z,9.50
2023-05-09T23:39:22.251Z,8.90
2023-05-09T23:41:50.155Z,8.10
2023-05-09T23:44:18.150Z,11.60
2023-05-09T23:46:46.074Z,10.80
2023-05-09T23:49:14.661Z,10.00
2023-05-09T23:52:00.669Z,9.30
2023-05-09T23:54:28.705Z,19.30
2023-05-09T23:56:57.395Z,10.40
2023-05-09T23:59:25.326Z,11.40
